Aventura, Florida
Current Conditions -  °F | °C
As of 7:53 AM on Friday 28 Nov 2014 (Local Time) from KHWO Reporting Station
Clear Clear  
Wind Chill: 52°   Ceiling: Unl
Heat Index: 52°   Visibility: 10mi
Dew Point: 44°   Wind: 14mph
Humidity: 74%   Direction: 330°NNW
Pressure: 30.25"   Gusts: NA
Location:  25.9536°N, 80.1568°W
Report Text: KHWO 281253Z 33012KT 10SM CLR 11/07 A3025 RMK AO2 SLP242 T01110067
Loading
Personal Weather Stations






























Interactive Weather Map New forecast layout! Learn more

10-Day Weather Forecast

Advertisements
Track Severe Weather on mobile